Airfield :
LOGIN :

Register | Disclaimer

   EN    FR    IT 

 










Legend :    VFR   Marginal VFR   IFR   Intensive IFR   Very Intensive IFR
Visi :
Ceiling :
>= 8 km
>= 3000ft
5 to 8 km
1000 to 3000 ft
1500m to 5 km
500 to 1000 ft
800 to 1500m
200 to 500 ft
< 800m
< 200 ft
Symbols :   Thunderstorms  Fog  Heavy snow  Heavy precipitations  Wind > 20 kt
SIGMETs :     Misc.  Thunderstorms  Icing  Turbulence  Mountain Waves  Volcanic Ashes






- Airport Elevation : 13 ft
- IATA code : GOA


LIMJ - Genoa Cristoforo Colombo

CURRENT METAR :
  • 121250Z 02008KT 320V060 CAVOK 15/07 Q0998

EXPIRED METARs :
  • 121220Z 02009G19KT 340V080 CAVOK 14/07 Q0998
  • 121150Z 02010KT 320V050 CAVOK 14/07 Q0999
  • 121120Z VRB09KT CAVOK 14/07 Q0999
  • 121050Z VRB09G19KT CAVOK 13/06 Q1000
  • 121020Z 05009G21KT 360V100 CAVOK 12/06 Q1001

TAF TAF LIMJ
Valid from the 12 at 12:00 until the 13 at 12:00 UTC


121100Z 1212/1312 03015KT 9999 SCT030
TEMPO 1212/1218 03020G30KT



MET'MAP, your aeronautical weather chart ! - Copyright ORBIFLY December 2007 - Disclaimer

ORBIFLY MET'MAP TEAM :

Programming & Development : Alexandra Zaïnal
Concept & Development : Baudouin d'Aumeries
Co-Development & Prog : Marc-Olivier Méhu
Technical & hardware support : Manuel Goepfert

Contact : metmap@orbifly.com




SOURCES & CREDITS :

   NOAA